Time;durP1;ratioP1;P1;durP2;ratioP2;P2;SDS_P1;SDS_P2;PMS_P1;PMS_P2;Temp;Humidity;BMP_temperature;BMP_pressure;BME280_temperature;BME280_humidity;BME280_pressure;Samples;Min_cycle;Max_cycle;Signal;HPM_P1;HPM_P2
2021/03/23 00:02:18;;;;;;;517.25;255.85;;;;;;;;;;5034325;28;20049;-76
2021/03/23 00:04:44;;;;;;;521.42;254.45;;;;;;;;;;5034474;28;20025;-75
2021/03/23 00:07:10;;;;;;;534.47;260.50;;;;;;;;;;5058206;28;20033;-75
2021/03/23 00:09:36;;;;;;;525.08;256.88;;;;;;;;;;5064644;28;20025;-75
2021/03/23 00:12:02;;;;;;;525.90;260.02;;;;;;;;;;5054683;28;20025;-75
2021/03/23 00:14:29;;;;;;;528.40;268.08;;;;;;;;;;5044975;28;20033;-74
2021/03/23 00:16:55;;;;;;;528.42;263.15;;;;;;;;;;5038090;28;20040;-74
2021/03/23 00:19:21;;;;;;;521.75;263.13;;;;;;;;;;5037975;28;20025;-75
2021/03/23 00:21:47;;;;;;;523.47;254.52;;;;;;;;;;5038135;28;20116;-75
2021/03/23 00:24:13;;;;;;;523.58;254.43;;;;;;;;;;5037770;28;20031;-74
2021/03/23 00:26:39;;;;;;;524.83;258.73;;;;;;;;;;5055717;28;20025;-74
2021/03/23 00:29:05;;;;;;;529.47;261.45;;;;;;;;;;5046962;28;20465;-75
2021/03/23 00:31:32;;;;;;;527.97;260.20;;;;;;;;;;5054496;28;20384;-75
2021/03/23 00:33:59;;;;;;;529.33;263.15;;;;;;;;;;5053346;28;20037;-75
2021/03/23 00:36:26;;;;;;;533.85;262.17;;;;;;;;;;5055680;28;20079;-75
2021/03/23 00:38:54;;;;;;;521.97;250.48;;;;;;;;;;5054208;28;20115;-75
2021/03/23 00:41:19;;;;;;;530.60;263.00;;;;;;;;;;5055548;28;20681;-75
2021/03/23 00:43:46;;;;;;;529.72;258.52;;;;;;;;;;5035780;28;20036;-75
2021/03/23 00:46:11;;;;;;;522.88;256.88;;;;;;;;;;5070330;28;20098;-75
2021/03/23 00:48:50;;;;;;;528.78;259.15;;;;;;;;;;5035517;28;20021;-75
2021/03/23 00:51:16;;;;;;;529.20;260.75;;;;;;;;;;5054585;28;20025;-75
2021/03/23 00:53:42;;;;;;;530.08;264.50;;;;;;;;;;5037229;28;20457;-75
2021/03/23 00:56:08;;;;;;;532.47;263.95;;;;;;;;;;5052863;28;20029;-74
2021/03/23 00:58:34;;;;;;;532.70;264.65;;;;;;;;;;5045782;28;20392;-77
2021/03/23 01:00:59;;;;;;;537.60;265.08;;;;;;;;;;5057923;28;20183;-75
2021/03/23 01:03:25;;;;;;;542.85;275.48;;;;;;;;;;5036997;28;20033;-75
2021/03/23 01:05:51;;;;;;;541.42;271.13;;;;;;;;;;5053325;28;20029;-74
2021/03/23 01:08:17;;;;;;;537.92;264.65;;;;;;;;;;5053742;28;20025;-75
2021/03/23 01:10:49;;;;;;;544.95;267.08;;;;;;;;;;5043924;28;20025;-75
2021/03/23 01:13:15;;;;;;;548.35;268.65;;;;;;;;;;5053005;28;20641;-75
2021/03/23 01:15:41;;;;;;;550.78;270.80;;;;;;;;;;5035580;28;20128;-75
2021/03/23 01:18:07;;;;;;;552.78;269.33;;;;;;;;;;5053357;28;20460;-75
2021/03/23 01:20:33;;;;;;;554.60;268.10;;;;;;;;;;5054465;28;20572;-75
2021/03/23 01:23:00;;;;;;;548.25;258.92;;;;;;;;;;5054587;28;20048;-75
2021/03/23 01:25:26;;;;;;;553.13;265.92;;;;;;;;;;5069750;28;20638;-75
2021/03/23 01:28:07;;;;;;;542.33;248.55;;;;;;;;;;5036255;28;20797;-74
2021/03/23 01:30:33;;;;;;;544.33;255.30;;;;;;;;;;5036449;28;20454;-75
2021/03/23 01:32:59;;;;;;;541.50;252.30;;;;;;;;;;5036717;28;20064;-74
2021/03/23 01:35:26;;;;;;;539.08;257.10;;;;;;;;;;5036440;28;20465;-75
2021/03/23 01:37:52;;;;;;;544.83;259.77;;;;;;;;;;5036565;28;20557;-75
2021/03/23 01:40:20;;;;;;;536.50;250.75;;;;;;;;;;5051752;28;20366;-74
2021/03/23 01:42:47;;;;;;;537.08;252.73;;;;;;;;;;5054422;28;20068;-74
2021/03/23 01:45:22;;;;;;;540.40;256.48;;;;;;;;;;5034265;28;20053;-75
2021/03/23 01:47:48;;;;;;;538.17;252.35;;;;;;;;;;5036270;28;20116;-74
2021/03/23 01:50:14;;;;;;;536.08;247.77;;;;;;;;;;5035711;28;20033;-75
2021/03/23 01:52:41;;;;;;;527.45;243.98;;;;;;;;;;5054304;28;20104;-74
2021/03/23 01:55:09;;;;;;;535.38;248.80;;;;;;;;;;5054058;28;20469;-75
2021/03/23 01:57:36;;;;;;;539.30;251.82;;;;;;;;;;5035794;28;20087;-75
2021/03/23 02:00:04;;;;;;;539.28;250.43;;;;;;;;;;5051063;28;20036;-74
2021/03/23 02:02:30;;;;;;;554.67;265.40;;;;;;;;;;5055088;28;20028;-74
2021/03/23 02:05:06;;;;;;;537.15;248.60;;;;;;;;;;5055952;28;20094;-74
2021/03/23 02:07:32;;;;;;;533.92;250.88;;;;;;;;;;5052517;28;20029;-75
2021/03/23 02:09:59;;;;;;;539.75;250.68;;;;;;;;;;5053688;28;20029;-74
2021/03/23 02:12:29;;;;;;;538.28;252.35;;;;;;;;;;5035895;28;20032;-74
2021/03/23 02:14:55;;;;;;;;;;;;;;;;;;5035068;28;20033;-74
2021/03/23 02:17:22;;;;;;;532.03;235.25;;;;;;;;;;5035404;28;19909;-75
2021/03/23 02:19:48;;;;;;;529.15;246.55;;;;;;;;;;5051324;28;20619;-75
2021/03/23 02:22:21;;;;;;;536.75;251.25;;;;;;;;;;5053456;28;20104;-75
2021/03/23 02:24:47;;;;;;;539.78;247.70;;;;;;;;;;5052229;28;20021;-75
2021/03/23 02:27:13;;;;;;;548.58;268.52;;;;;;;;;;5040112;28;20123;-75
2021/03/23 02:29:39;;;;;;;544.75;254.60;;;;;;;;;;5035651;28;20485;-75
2021/03/23 02:32:05;;;;;;;546.60;259.67;;;;;;;;;;5053324;28;20056;-75
2021/03/23 02:34:31;;;;;;;551.65;254.32;;;;;;;;;;5035378;28;20036;-75
2021/03/23 02:36:57;;;;;;;559.08;272.88;;;;;;;;;;5040482;28;20036;-75
2021/03/23 02:39:25;;;;;;;536.08;251.32;;;;;;;;;;5039691;28;20106;-74
2021/03/23 02:41:52;;;;;;;536.13;257.50;;;;;;;;;;5034732;28;20070;-74
2021/03/23 02:44:18;;;;;;;537.28;255.35;;;;;;;;;;5050459;28;20066;-74
2021/03/23 02:46:44;;;;;;;539.63;259.95;;;;;;;;;;5034703;28;20556;-75
2021/03/23 02:49:13;;;;;;;552.22;264.45;;;;;;;;;;5034992;28;20159;-74
2021/03/23 02:51:39;;;;;;;549.08;264.25;;;;;;;;;;5035294;28;20021;-75
2021/03/23 02:54:05;;;;;;;550.22;260.67;;;;;;;;;;5035257;28;20029;-75
2021/03/23 02:56:31;;;;;;;548.33;261.67;;;;;;;;;;5034884;28;20043;-74
2021/03/23 02:58:57;;;;;;;565.15;264.83;;;;;;;;;;5034664;28;20085;-76
2021/03/23 03:01:23;;;;;;;551.03;263.13;;;;;;;;;;5053088;28;20028;-75
2021/03/23 03:03:49;;;;;;;550.15;259.58;;;;;;;;;;5034823;28;20708;-75
2021/03/23 03:06:15;;;;;;;558.33;261.58;;;;;;;;;;5052523;28;20025;-75
2021/03/23 03:08:41;;;;;;;557.22;259.13;;;;;;;;;;5052937;28;20051;-75
2021/03/23 03:11:08;;;;;;;560.28;264.00;;;;;;;;;;5035052;28;20029;-74
2021/03/23 03:13:34;;;;;;;547.63;249.05;;;;;;;;;;5033381;28;20025;-75
2021/03/23 03:16:07;;;;;;;544.13;257.55;;;;;;;;;;5068002;28;20037;-76
2021/03/23 03:18:33;;;;;;;529.10;241.10;;;;;;;;;;5051380;28;20163;-75
2021/03/23 03:21:00;;;;;;;540.90;253.82;;;;;;;;;;5034840;28;20083;-75
2021/03/23 03:23:26;;;;;;;544.53;253.13;;;;;;;;;;5052671;28;20025;-75
2021/03/23 03:25:52;;;;;;;539.58;250.45;;;;;;;;;;5051386;28;20365;-74
2021/03/23 03:28:19;;;;;;;530.45;256.60;;;;;;;;;;5052487;28;20416;-74
2021/03/23 03:30:45;;;;;;;529.90;250.88;;;;;;;;;;5051234;28;20028;-74
2021/03/23 03:33:12;;;;;;;537.38;255.65;;;;;;;;;;5034532;28;20617;-75
2021/03/23 03:35:39;;;;;;;531.83;254.90;;;;;;;;;;5034662;28;20055;-75
2021/03/23 03:38:06;;;;;;;524.55;253.82;;;;;;;;;;5033565;28;20759;-75
2021/03/23 03:40:34;;;;;;;529.95;256.15;;;;;;;;;;5028048;28;20037;-75
2021/03/23 03:43:00;;;;;;;525.13;248.80;;;;;;;;;;5045219;28;20472;-74
2021/03/23 03:45:27;;;;;;;531.40;252.93;;;;;;;;;;5052917;28;20052;-76
2021/03/23 03:47:53;;;;;;;530.03;258.08;;;;;;;;;;5055784;28;20047;-75
2021/03/23 03:50:20;;;;;;;528.20;249.95;;;;;;;;;;5056445;28;20028;-75
2021/03/23 03:52:46;;;;;;;536.75;264.52;;;;;;;;;;5056225;28;20469;-75
2021/03/23 03:55:20;;;;;;;529.72;252.52;;;;;;;;;;5055056;28;20036;-75
2021/03/23 03:57:46;;;;;;;527.72;251.90;;;;;;;;;;5055742;28;20104;-75
2021/03/23 04:00:13;;;;;;;530.83;244.68;;;;;;;;;;5037935;28;20708;-74
2021/03/23 04:02:39;;;;;;;529.35;250.65;;;;;;;;;;5054853;28;20026;-75
2021/03/23 04:05:23;;;;;;;534.05;254.65;;;;;;;;;;5056417;28;20086;-74
2021/03/23 04:07:50;;;;;;;530.03;244.77;;;;;;;;;;5054330;28;20036;-74
2021/03/23 04:10:16;;;;;;;528.10;253.10;;;;;;;;;;5037702;28;20036;-75
2021/03/23 04:12:42;;;;;;;539.50;254.40;;;;;;;;;;5054530;28;20116;-75
2021/03/23 04:15:09;;;;;;;534.40;256.90;;;;;;;;;;5036881;28;20029;-75
2021/03/23 04:17:35;;;;;;;528.90;248.75;;;;;;;;;;5037938;28;20393;-75
2021/03/23 04:20:02;;;;;;;530.63;247.10;;;;;;;;;;5038077;28;20032;-75
2021/03/23 04:22:29;;;;;;;528.22;253.00;;;;;;;;;;5037726;28;20028;-76
2021/03/23 04:24:55;;;;;;;532.20;256.48;;;;;;;;;;5037952;28;20033;-74
2021/03/23 04:27:21;;;;;;;536.42;251.25;;;;;;;;;;5038248;28;20135;-74
2021/03/23 04:29:47;;;;;;;543.35;265.90;;;;;;;;;;5037632;28;20409;-74
2021/03/23 04:32:13;;;;;;;539.53;258.73;;;;;;;;;;5037924;28;20124;-74
2021/03/23 04:34:39;;;;;;;538.33;258.70;;;;;;;;;;5055191;28;20029;-75
2021/03/23 04:37:05;;;;;;;535.35;248.48;;;;;;;;;;5037960;28;20029;-74
2021/03/23 04:39:32;;;;;;;554.70;265.77;;;;;;;;;;5055336;28;20550;-74
2021/03/23 04:41:58;;;;;;;547.13;261.50;;;;;;;;;;5055501;28;20021;-75
2021/03/23 04:44:24;;;;;;;536.78;257.17;;;;;;;;;;5035649;28;20136;-75
2021/03/23 04:46:50;;;;;;;538.13;242.60;;;;;;;;;;5053913;28;20063;-75
2021/03/23 04:49:16;;;;;;;543.83;255.23;;;;;;;;;;5053271;28;20640;-74
2021/03/23 04:51:43;;;;;;;558.50;259.10;;;;;;;;;;5037516;28;20123;-75
2021/03/23 04:54:10;;;;;;;552.90;267.35;;;;;;;;;;5037023;28;20116;-76
2021/03/23 04:56:37;;;;;;;537.00;256.27;;;;;;;;;;5053924;28;20032;-75
2021/03/23 04:59:03;;;;;;;555.45;254.35;;;;;;;;;;5053228;28;20033;-75
2021/03/23 05:01:29;;;;;;;557.78;259.63;;;;;;;;;;5053975;28;20033;-75
2021/03/23 05:03:56;;;;;;;553.17;260.80;;;;;;;;;;5051230;28;20021;-75
2021/03/23 05:06:23;;;;;;;562.90;263.20;;;;;;;;;;5049572;28;20026;-75
2021/03/23 05:08:49;;;;;;;565.30;255.52;;;;;;;;;;5034050;28;20056;-75
2021/03/23 05:11:16;;;;;;;556.80;267.98;;;;;;;;;;5049013;28;20091;-75
2021/03/23 05:13:43;;;;;;;554.97;258.67;;;;;;;;;;5035390;28;20033;-75
2021/03/23 05:16:09;;;;;;;547.50;261.15;;;;;;;;;;5037046;28;20037;-76
2021/03/23 05:18:35;;;;;;;553.30;267.08;;;;;;;;;;5036809;28;20112;-75
2021/03/23 05:21:20;;;;;;;558.53;260.42;;;;;;;;;;5054772;28;20057;-75
2021/03/23 05:23:46;;;;;;;550.88;258.33;;;;;;;;;;5036616;28;20056;-74
2021/03/23 05:26:12;;;;;;;547.05;263.98;;;;;;;;;;5054871;28;20088;-75
2021/03/23 05:28:38;;;;;;;549.45;263.10;;;;;;;;;;5035986;28;20033;-75
2021/03/23 05:31:05;;;;;;;541.45;252.32;;;;;;;;;;5036706;28;20107;-74
2021/03/23 05:33:31;;;;;;;547.15;254.20;;;;;;;;;;5054342;28;20033;-75
2021/03/23 05:35:58;;;;;;;549.60;256.77;;;;;;;;;;5054619;28;20033;-75
2021/03/23 05:38:25;;;;;;;561.83;270.77;;;;;;;;;;5054331;28;20033;-75
2021/03/23 05:41:21;;;;;;;556.72;263.15;;;;;;;;;;5036380;28;20119;-74
2021/03/23 05:44:02;;;;;;;550.55;253.93;;;;;;;;;;4975328;28;20049;-75
2021/03/23 05:46:30;;;;;;;549.10;246.60;;;;;;;;;;5051233;28;20045;-74
2021/03/23 05:48:56;;;;;;;558.75;258.13;;;;;;;;;;5047026;28;20723;-75
2021/03/23 05:51:25;;;;;;;549.20;255.15;;;;;;;;;;5052393;28;20017;-75
2021/03/23 05:53:54;;;;;;;544.30;250.25;;;;;;;;;;5051357;28;20052;-75
2021/03/23 05:56:21;;;;;;;546.95;256.70;;;;;;;;;;5054461;28;20041;-75
2021/03/23 05:58:49;;;;;;;547.35;255.98;;;;;;;;;;5037977;28;20461;-75
2021/03/23 06:01:26;;;;;;;559.28;262.05;;;;;;;;;;5073949;28;20408;-76
2021/03/23 06:03:58;;;;;;;552.53;252.85;;;;;;;;;;5063505;28;20029;-75
2021/03/23 06:06:27;;;;;;;556.90;258.27;;;;;;;;;;5051238;28;20545;-75
2021/03/23 06:08:53;;;;;;;553.78;263.20;;;;;;;;;;5035821;28;20032;-75
2021/03/23 06:11:19;;;;;;;553.70;263.60;;;;;;;;;;5035749;28;20119;-75
2021/03/23 06:13:48;;;;;;;554.05;261.60;;;;;;;;;;5052194;28;20065;-75
2021/03/23 06:16:26;;;;;;;557.17;266.17;;;;;;;;;;5035725;28;20043;-75
2021/03/23 06:19:00;;;;;;;560.80;262.15;;;;;;;;;;5053465;28;20033;-75
2021/03/23 06:21:29;;;;;;;557.72;260.58;;;;;;;;;;5052277;28;20048;-75
2021/03/23 06:23:55;;;;;;;567.95;266.08;;;;;;;;;;5034615;28;20111;-75
2021/03/23 06:26:32;;;;;;;575.53;272.08;;;;;;;;;;5041114;28;20394;-75
2021/03/23 06:29:04;;;;;;;557.22;252.35;;;;;;;;;;5053360;28;20033;-75
2021/03/23 06:31:30;;;;;;;553.88;256.88;;;;;;;;;;5052078;28;20033;-75
2021/03/23 06:33:56;;;;;;;562.42;271.73;;;;;;;;;;5052930;28;20021;-75
2021/03/23 06:36:56;;;;;;;549.05;262.90;;;;;;;;;;5035040;28;20044;-76
2021/03/23 06:39:22;;;;;;;559.13;262.90;;;;;;;;;;5035203;28;20029;-75
2021/03/23 06:41:54;;;;;;;551.08;261.73;;;;;;;;;;5053356;28;20025;-75
2021/03/23 06:44:22;;;;;;;545.42;269.33;;;;;;;;;;5051303;28;20024;-75
2021/03/23 06:46:49;;;;;;;546.20;269.75;;;;;;;;;;5034966;28;20041;-75
2021/03/23 06:49:16;;;;;;;543.10;269.38;;;;;;;;;;5034367;28;20670;-76
2021/03/23 06:51:51;;;;;;;550.92;270.25;;;;;;;;;;5032116;28;20581;-75
2021/03/23 06:54:22;;;;;;;553.45;267.70;;;;;;;;;;5032154;28;20076;-75
2021/03/23 06:56:47;;;;;;;;;;;;;;;;;;5035559;28;20035;-75
2021/03/23 06:59:26;;;;;;;541.40;258.65;;;;;;;;;;5051659;28;20484;-75
2021/03/23 07:02:00;;;;;;;566.65;276.75;;;;;;;;;;5040386;28;20063;-75
2021/03/23 07:04:29;;;;;;;559.67;267.70;;;;;;;;;;5052669;28;20104;-75
2021/03/23 07:07:24;;;;;;;577.15;272.60;;;;;;;;;;5032789;28;20022;-75
2021/03/23 07:09:50;;;;;;;580.30;274.50;;;;;;;;;;5022730;28;20041;-75
2021/03/23 07:12:17;;;;;;;575.70;276.40;;;;;;;;;;5034956;28;20032;-75
2021/03/23 07:14:45;;;;;;;573.13;279.85;;;;;;;;;;5032401;28;20027;-75
2021/03/23 07:17:12;;;;;;;574.85;280.58;;;;;;;;;;5034987;28;20056;-75
2021/03/23 07:19:50;;;;;;;568.25;262.35;;;;;;;;;;5034985;28;20467;-75
2021/03/23 07:22:35;;;;;;;574.67;285.02;;;;;;;;;;5035031;28;20646;-75
2021/03/23 07:25:02;;;;;;;582.38;277.92;;;;;;;;;;5034328;28;20623;-75
2021/03/23 07:27:29;;;;;;;578.67;279.60;;;;;;;;;;5034491;28;20361;-75
2021/03/23 07:30:26;;;;;;;590.47;286.48;;;;;;;;;;5051118;28;20029;-74
2021/03/23 07:32:54;;;;;;;595.22;293.55;;;;;;;;;;5044263;28;20033;-74
2021/03/23 07:35:45;;;;;;;604.85;306.35;;;;;;;;;;5051190;28;20079;-75
2021/03/23 07:38:36;;;;;;;600.92;290.73;;;;;;;;;;5050888;28;20029;-75
2021/03/23 07:41:03;;;;;;;594.35;291.98;;;;;;;;;;5036957;28;20037;-75
2021/03/23 07:43:47;;;;;;;605.50;296.63;;;;;;;;;;5032469;28;20138;-75
2021/03/23 07:46:32;;;;;;;609.50;300.85;;;;;;;;;;5033785;28;20957;-75
2021/03/23 07:49:01;;;;;;;605.58;299.40;;;;;;;;;;5039511;28;20061;-75
2021/03/23 07:51:27;;;;;;;602.83;300.85;;;;;;;;;;5051310;28;20055;-75
2021/03/23 07:53:58;;;;;;;607.53;297.40;;;;;;;;;;5050799;28;20083;-74
2021/03/23 07:56:40;;;;;;;613.28;299.67;;;;;;;;;;5051611;28;20032;-76
2021/03/23 07:59:06;;;;;;;627.65;311.27;;;;;;;;;;5051782;28;20036;-75
2021/03/23 08:01:42;;;;;;;617.30;303.65;;;;;;;;;;5067182;28;20033;-76
2021/03/23 08:04:11;;;;;;;620.20;301.45;;;;;;;;;;5030693;28;20022;-77
2021/03/23 08:07:04;;;;;;;615.47;299.30;;;;;;;;;;5030804;28;20112;-75
2021/03/23 08:09:48;;;;;;;624.92;297.88;;;;;;;;;;5037380;28;20115;-77
2021/03/23 08:12:33;;;;;;;627.58;304.63;;;;;;;;;;5031737;28;20036;-75
2021/03/23 08:15:11;;;;;;;613.65;301.48;;;;;;;;;;5038314;28;20025;-76
2021/03/23 08:17:46;;;;;;;619.35;307.70;;;;;;;;;;5033395;28;20039;-76
2021/03/23 08:20:24;;;;;;;612.78;300.45;;;;;;;;;;5033179;28;20036;-76
2021/03/23 08:23:08;;;;;;;624.72;314.70;;;;;;;;;;5051538;28;20476;-74
2021/03/23 08:25:54;;;;;;;613.33;307.70;;;;;;;;;;5066478;28;20729;-75
2021/03/23 08:28:29;;;;;;;617.65;303.50;;;;;;;;;;4989221;28;20405;-73
2021/03/23 08:30:58;;;;;;;615.25;307.83;;;;;;;;;;5068336;28;20025;-72
2021/03/23 08:33:37;;;;;;;629.65;312.90;;;;;;;;;;5050715;28;20078;-73
2021/03/23 08:36:22;;;;;;;636.20;307.58;;;;;;;;;;5050238;28;20043;-73
2021/03/23 08:38:48;;;;;;;610.92;288.27;;;;;;;;;;5053249;28;20396;-71
2021/03/23 08:41:17;;;;;;;611.78;302.58;;;;;;;;;;5035841;28;20025;-72
2021/03/23 08:43:43;;;;;;;627.60;316.65;;;;;;;;;;5050301;28;20025;-71
2021/03/23 08:46:30;;;;;;;615.15;312.58;;;;;;;;;;5051189;28;20045;-69
2021/03/23 08:48:58;;;;;;;615.78;316.38;;;;;;;;;;5051416;28;20369;-72
2021/03/23 08:51:25;;;;;;;614.35;303.52;;;;;;;;;;5052652;28;20032;-72
2021/03/23 08:53:56;;;;;;;613.58;328.17;;;;;;;;;;5053631;28;20029;-72
2021/03/23 08:56:41;;;;;;;624.10;328.67;;;;;;;;;;5044821;28;20553;-72
2021/03/23 08:59:27;;;;;;;608.88;317.92;;;;;;;;;;5045538;28;20374;-72
2021/03/23 09:01:53;;;;;;;630.83;325.13;;;;;;;;;;5053916;28;20354;-73
2021/03/23 09:04:22;;;;;;;613.30;310.80;;;;;;;;;;5053010;28;20094;-72
2021/03/23 09:06:50;;;;;;;617.53;317.13;;;;;;;;;;5047426;28;20025;-73
2021/03/23 09:09:21;;;;;;;619.85;321.13;;;;;;;;;;5051033;28;20033;-73
2021/03/23 09:11:53;;;;;;;623.50;318.13;;;;;;;;;;5052688;28;20032;-73
2021/03/23 09:14:23;;;;;;;624.45;327.67;;;;;;;;;;5049051;28;20474;-72
2021/03/23 09:16:51;;;;;;;624.55;312.02;;;;;;;;;;5035458;28;20058;-72
2021/03/23 09:19:35;;;;;;;624.50;324.75;;;;;;;;;;5053190;28;20087;-73
2021/03/23 09:22:01;;;;;;;612.10;323.98;;;;;;;;;;5052472;28;20033;-73
2021/03/23 09:24:38;;;;;;;620.70;321.65;;;;;;;;;;5034423;28;20036;-73
2021/03/23 09:27:36;;;;;;;604.67;317.27;;;;;;;;;;5047661;28;20029;-73
2021/03/23 09:30:22;;;;;;;612.92;316.60;;;;;;;;;;5049223;28;20029;-73
2021/03/23 09:33:07;;;;;;;601.60;309.95;;;;;;;;;;5048315;28;20048;-72
2021/03/23 09:35:33;;;;;;;603.78;308.23;;;;;;;;;;5044900;28;20032;-72
2021/03/23 09:38:20;;;;;;;605.78;310.15;;;;;;;;;;5039221;28;20040;-73
2021/03/23 09:40:56;;;;;;;609.50;307.52;;;;;;;;;;5046551;28;20052;-72
2021/03/23 09:43:27;;;;;;;610.85;314.75;;;;;;;;;;5031256;28;20429;-72
2021/03/23 09:45:55;;;;;;;616.15;317.33;;;;;;;;;;5043698;28;20140;-72
2021/03/23 09:48:30;;;;;;;620.17;321.02;;;;;;;;;;5046925;28;20033;-71
2021/03/23 09:50:56;;;;;;;640.67;316.17;;;;;;;;;;5045620;28;20021;-72
2021/03/23 09:53:38;;;;;;;650.50;318.60;;;;;;;;;;5049919;28;20098;-72
2021/03/23 09:56:07;;;;;;;732.67;325.83;;;;;;;;;;5037454;28;20033;-73
2021/03/23 09:58:33;;;;;;;606.80;320.58;;;;;;;;;;5050013;28;20522;-72
2021/03/23 10:01:09;;;;;;;603.25;319.27;;;;;;;;;;5061996;28;20029;-72
2021/03/23 10:03:37;;;;;;;615.88;327.65;;;;;;;;;;5052155;28;20101;-72
2021/03/23 10:06:08;;;;;;;600.15;312.95;;;;;;;;;;5052227;28;20018;-72
2021/03/23 10:08:35;;;;;;;609.80;328.33;;;;;;;;;;5061695;28;20033;-72
2021/03/23 10:11:05;;;;;;;610.53;319.42;;;;;;;;;;5049337;28;20102;-72
2021/03/23 10:13:32;;;;;;;600.28;317.58;;;;;;;;;;5059292;28;20853;-73
2021/03/23 10:16:05;;;;;;;591.58;323.20;;;;;;;;;;5048900;28;20032;-72
2021/03/23 10:18:35;;;;;;;605.20;325.67;;;;;;;;;;5063852;28;20526;-72
2021/03/23 10:21:01;;;;;;;609.20;329.58;;;;;;;;;;5039000;28;20029;-72
2021/03/23 10:23:28;;;;;;;603.97;332.38;;;;;;;;;;5062116;28;21794;-72
2021/03/23 10:25:55;;;;;;;597.95;328.42;;;;;;;;;;5049082;28;20021;-72
2021/03/23 10:28:31;;;;;;;602.35;327.20;;;;;;;;;;5047324;28;20027;-73
2021/03/23 10:31:02;;;;;;;601.53;326.80;;;;;;;;;;5043094;28;20044;-73
2021/03/23 10:33:30;;;;;;;608.75;340.70;;;;;;;;;;5041347;28;20083;-73
2021/03/23 10:35:58;;;;;;;590.80;318.50;;;;;;;;;;5065083;28;20117;-73
2021/03/23 10:38:27;;;;;;;600.83;326.10;;;;;;;;;;5047040;28;21060;-73
2021/03/23 10:41:15;;;;;;;587.78;320.90;;;;;;;;;;5062445;28;20021;-73
2021/03/23 10:43:42;;;;;;;591.83;319.30;;;;;;;;;;5038015;28;20139;-72
2021/03/23 10:46:27;;;;;;;597.97;323.60;;;;;;;;;;5040897;28;20495;-73
2021/03/23 10:48:53;;;;;;;591.75;322.48;;;;;;;;;;5035936;28;20026;-72
2021/03/23 10:51:27;;;;;;;595.47;324.95;;;;;;;;;;5028366;28;20026;-72
2021/03/23 10:54:12;;;;;;;590.60;327.45;;;;;;;;;;5035169;28;20018;-71
2021/03/23 10:56:38;;;;;;;586.50;319.15;;;;;;;;;;5017628;28;20026;-73
2021/03/23 10:59:08;;;;;;;590.97;325.70;;;;;;;;;;5014332;28;20448;-71
2021/03/23 11:01:34;;;;;;;;;;;;;;;;;;5020479;28;20037;-72
2021/03/23 11:04:17;;;;;;;578.22;315.98;;;;;;;;;;5039586;28;19917;-74
2021/03/23 11:06:43;;;;;;;580.78;329.85;;;;;;;;;;5029763;28;20045;-72
2021/03/23 11:09:14;;;;;;;583.92;327.52;;;;;;;;;;5041632;28;20061;-73
2021/03/23 11:11:40;;;;;;;579.17;325.08;;;;;;;;;;5011337;28;20444;-74
2021/03/23 11:14:06;;;;;;;583.72;335.13;;;;;;;;;;5025555;28;20033;-73
2021/03/23 11:16:34;;;;;;;578.03;330.38;;;;;;;;;;5009840;28;20026;-74
2021/03/23 11:19:01;;;;;;;580.83;328.17;;;;;;;;;;5024917;28;20065;-72
2021/03/23 11:21:27;;;;;;;575.67;325.08;;;;;;;;;;5040219;28;20028;-73
2021/03/23 11:23:57;;;;;;;582.47;334.95;;;;;;;;;;5015331;28;20493;-72
2021/03/23 11:26:24;;;;;;;578.78;332.02;;;;;;;;;;5024169;28;20025;-77
2021/03/23 11:28:55;;;;;;;577.00;325.92;;;;;;;;;;5040711;28;20025;-77
2021/03/23 11:31:22;;;;;;;577.25;335.27;;;;;;;;;;5025270;28;20022;-77
2021/03/23 11:33:48;;;;;;;573.63;329.55;;;;;;;;;;5024559;28;20035;-79
2021/03/23 11:36:15;;;;;;;567.72;338.85;;;;;;;;;;5027280;28;20029;-76
2021/03/23 11:38:41;;;;;;;567.65;332.58;;;;;;;;;;5042054;28;20029;-78
2021/03/23 11:41:09;;;;;;;561.60;332.27;;;;;;;;;;5014456;28;20028;-78
2021/03/23 11:43:47;;;;;;;566.22;344.77;;;;;;;;;;5035512;28;20026;-76
2021/03/23 11:46:13;;;;;;;565.35;337.42;;;;;;;;;;5026926;28;20489;-79
2021/03/23 11:48:43;;;;;;;565.15;344.02;;;;;;;;;;5013711;28;20088;-77
2021/03/23 11:51:23;;;;;;;560.08;337.92;;;;;;;;;;5013746;28;20105;-78
2021/03/23 11:53:49;;;;;;;;;;;;;;;;;;5023394;28;20030;-76
2021/03/23 11:56:17;;;;;;;558.03;323.25;;;;;;;;;;5031408;28;19999;-78
2021/03/23 11:58:43;;;;;;;559.00;335.55;;;;;;;;;;5034175;28;20026;-77
2021/03/23 12:01:10;;;;;;;558.08;340.48;;;;;;;;;;5034958;28;20577;-77
2021/03/23 12:03:36;;;;;;;558.88;344.25;;;;;;;;;;5018792;28;20418;-77
2021/03/23 12:06:02;;;;;;;560.10;340.08;;;;;;;;;;5018086;28;20112;-79
2021/03/23 12:08:43;;;;;;;556.53;346.73;;;;;;;;;;5017969;28;21857;-79
2021/03/23 12:11:17;;;;;;;560.17;335.33;;;;;;;;;;5037546;28;20080;-81
2021/03/23 12:14:02;;;;;;;558.55;350.02;;;;;;;;;;5019635;28;20036;-78
2021/03/23 12:16:37;;;;;;;562.38;353.25;;;;;;;;;;5033391;28;20036;-78
2021/03/23 12:19:05;;;;;;;554.22;350.95;;;;;;;;;;5027090;28;20041;-79
2021/03/23 12:21:32;;;;;;;556.45;347.35;;;;;;;;;;5046058;28;20108;-79
2021/03/23 12:23:58;;;;;;;555.22;341.38;;;;;;;;;;5033807;28;20038;-80
2021/03/23 12:26:24;;;;;;;557.50;345.73;;;;;;;;;;5044315;28;20060;-78
2021/03/23 12:28:50;;;;;;;555.33;340.80;;;;;;;;;;5039107;28;20700;-76
2021/03/23 12:31:16;;;;;;;557.30;342.98;;;;;;;;;;5017784;28;20080;-77
2021/03/23 12:33:42;;;;;;;561.15;344.58;;;;;;;;;;5034779;28;20025;-81
2021/03/23 12:36:09;;;;;;;562.67;357.20;;;;;;;;;;5017944;28;20432;-78
2021/03/23 12:38:36;;;;;;;556.03;345.45;;;;;;;;;;5046608;28;20021;-76
2021/03/23 12:41:02;;;;;;;563.05;352.08;;;;;;;;;;5033854;28;20021;-77
2021/03/23 12:43:29;;;;;;;560.60;353.77;;;;;;;;;;5034177;28;20040;-78
2021/03/23 12:45:57;;;;;;;562.13;350.17;;;;;;;;;;5013147;28;20084;-78
2021/03/23 12:48:24;;;;;;;559.58;353.63;;;;;;;;;;5053310;28;20433;-76
2021/03/23 12:50:50;;;;;;;564.08;357.80;;;;;;;;;;5056904;28;20234;-78
2021/03/23 12:53:17;;;;;;;560.88;352.75;;;;;;;;;;5037445;28;20021;-77
2021/03/23 12:55:45;;;;;;;559.97;349.50;;;;;;;;;;5043926;28;20536;-75
2021/03/23 12:58:15;;;;;;;568.67;355.23;;;;;;;;;;5052735;28;20440;-75
2021/03/23 13:00:41;;;;;;;566.30;354.80;;;;;;;;;;5049395;28;20028;-75
2021/03/23 13:03:10;;;;;;;568.92;350.65;;;;;;;;;;5053279;28;20203;-78
2021/03/23 13:05:36;;;;;;;570.63;353.77;;;;;;;;;;5048151;28;20048;-75
2021/03/23 13:08:03;;;;;;;580.70;353.95;;;;;;;;;;5049395;28;20079;-78
2021/03/23 13:10:38;;;;;;;592.65;354.58;;;;;;;;;;5036050;28;20407;-81
2021/03/23 13:13:25;;;;;;;584.55;353.08;;;;;;;;;;5051883;28;20048;-77
2021/03/23 13:16:06;;;;;;;565.33;337.38;;;;;;;;;;5036280;28;20463;-78
2021/03/23 13:18:32;;;;;;;560.80;340.38;;;;;;;;;;5047862;28;20025;-76
2021/03/23 13:21:00;;;;;;;565.83;352.13;;;;;;;;;;5044373;28;20024;-78
2021/03/23 13:23:31;;;;;;;566.75;353.85;;;;;;;;;;5053475;28;20045;-76
2021/03/23 13:25:58;;;;;;;573.97;365.95;;;;;;;;;;5053723;28;20464;-81
2021/03/23 13:28:32;;;;;;;580.55;368.27;;;;;;;;;;5052814;28;20477;-78
2021/03/23 13:30:58;;;;;;;577.60;361.88;;;;;;;;;;5037343;28;20688;-78
2021/03/23 13:33:24;;;;;;;555.03;352.48;;;;;;;;;;5054560;28;20021;-78
2021/03/23 13:35:52;;;;;;;547.80;342.00;;;;;;;;;;5035795;28;20477;-76
2021/03/23 13:38:18;;;;;;;571.28;365.20;;;;;;;;;;5035615;28;20052;-79
2021/03/23 13:40:45;;;;;;;562.67;347.33;;;;;;;;;;5036309;28;20059;-83
2021/03/23 13:43:17;;;;;;;565.72;355.73;;;;;;;;;;5036187;28;20075;-79
2021/03/23 13:45:50;;;;;;;573.33;371.02;;;;;;;;;;5047784;28;20076;-78
2021/03/23 13:48:25;;;;;;;557.30;356.77;;;;;;;;;;5045975;28;20447;-78
2021/03/23 13:50:53;;;;;;;561.17;367.98;;;;;;;;;;5045748;28;20691;-77
2021/03/23 13:53:21;;;;;;;552.63;347.63;;;;;;;;;;5046236;28;20079;-76
2021/03/23 13:55:49;;;;;;;552.30;352.83;;;;;;;;;;5050172;28;20017;-78
2021/03/23 13:58:16;;;;;;;561.15;352.23;;;;;;;;;;5052048;28;20057;-78
2021/03/23 14:00:44;;;;;;;552.42;355.70;;;;;;;;;;5035652;28;20021;-78
2021/03/23 14:03:10;;;;;;;560.58;348.17;;;;;;;;;;5056972;28;20064;-80
2021/03/23 14:05:37;;;;;;;551.42;352.88;;;;;;;;;;5047604;28;20017;-78
2021/03/23 14:11:10;;;;;;;558.30;353.55;;;;;;;;;;5052684;28;20032;-78
2021/03/23 14:13:35;;;;;;;553.03;350.30;;;;;;;;;;5044620;28;20034;-77